Time;durP1;ratioP1;P1;durP2;ratioP2;P2;SDS_P1;SDS_P2;PMS_P1;PMS_P2;Temp;Humidity;BMP_temperature;BMP_pressure;BME280_temperature;BME280_humidity;BME280_pressure;Samples;Min_cycle;Max_cycle;Signal;HPM_P1;HPM_P2
2022/03/16 00:02:02;;;;;;;15.23;11.77;;;8.40;99.90;;;;;;5033865;28;20227;-66
2022/03/16 00:04:27;;;;;;;16.13;13.05;;;8.30;99.90;;;;;;5033369;28;20218;-66
2022/03/16 00:06:53;;;;;;;20.60;13.07;;;8.30;99.90;;;;;;5034207;28;20236;-67
2022/03/16 00:09:19;;;;;;;17.00;11.80;;;8.30;99.90;;;;;;5018297;28;20668;-68
2022/03/16 00:11:44;;;;;;;21.40;12.40;;;8.30;99.90;;;;;;5012748;28;20186;-67
2022/03/16 00:14:10;;;;;;;21.43;13.00;;;8.30;99.90;;;;;;5013565;28;20177;-67
2022/03/16 00:16:36;;;;;;;18.20;13.50;;;8.30;99.90;;;;;;5014057;28;20173;-68
2022/03/16 00:19:01;;;;;;;16.63;11.50;;;8.30;99.90;;;;;;5014088;28;20170;-67
2022/03/16 00:21:27;;;;;;;18.30;13.17;;;8.30;99.90;;;;;;5013886;28;20524;-67
2022/03/16 00:23:53;;;;;;;20.13;13.93;;;8.30;99.90;;;;;;5027026;28;20525;-67
2022/03/16 00:26:19;;;;;;;22.25;13.13;;;8.30;99.90;;;;;;5033527;28;20293;-67
2022/03/16 00:28:44;;;;;;;17.97;11.37;;;8.30;99.90;;;;;;5033652;28;20196;-67
2022/03/16 00:31:10;;;;;;;17.00;10.87;;;8.40;99.90;;;;;;5033331;28;20170;-68
2022/03/16 00:33:36;;;;;;;19.67;13.17;;;8.30;99.90;;;;;;5029476;28;20178;-67
2022/03/16 00:36:01;;;;;;;20.63;12.87;;;8.40;99.90;;;;;;5011796;28;20194;-67
2022/03/16 00:38:27;;;;;;;21.80;14.00;;;8.30;99.90;;;;;;5013225;28;20177;-67
2022/03/16 00:40:53;;;;;;;17.30;12.37;;;8.30;99.90;;;;;;5012460;28;20174;-67
2022/03/16 00:43:18;;;;;;;16.97;12.57;;;8.20;99.90;;;;;;5013084;28;20622;-68
2022/03/16 00:45:44;;;;;;;14.80;12.37;;;8.30;99.90;;;;;;5013498;28;20558;-67
2022/03/16 00:48:10;;;;;;;20.73;14.03;;;8.20;99.90;;;;;;5015228;28;20213;-67
2022/03/16 00:50:36;;;;;;;22.93;14.23;;;8.30;99.90;;;;;;5033490;28;20181;-67
2022/03/16 00:53:02;;;;;;;15.45;12.80;;;8.30;99.90;;;;;;5033349;28;20209;-67
2022/03/16 00:55:28;;;;;;;19.60;14.00;;;8.20;99.90;;;;;;5031713;28;20275;-68
2022/03/16 00:57:53;;;;;;;16.13;11.43;;;8.20;99.90;;;;;;5033247;28;20435;-66
2022/03/16 01:00:19;;;;;;;19.20;12.20;;;8.30;99.90;;;;;;5033368;28;20176;-68
2022/03/16 01:02:45;;;;;;;19.27;12.77;;;8.20;99.90;;;;;;5032026;28;20196;-68
2022/03/16 01:05:11;;;;;;;19.43;11.90;;;8.30;99.90;;;;;;5013049;28;20483;-67
2022/03/16 01:07:36;;;;;;;18.13;12.77;;;8.30;99.90;;;;;;5013331;28;20197;-67
2022/03/16 01:10:03;;;;;;;20.80;14.97;;;8.30;99.90;;;;;;5014377;28;20252;-67
2022/03/16 01:12:29;;;;;;;17.58;12.60;;;8.30;99.90;;;;;;5013545;28;20237;-67
2022/03/16 01:14:55;;;;;;;21.57;13.00;;;8.30;99.90;;;;;;5012939;28;20225;-67
2022/03/16 01:17:20;;;;;;;22.07;13.00;;;8.20;99.90;;;;;;5013325;28;20178;-67
2022/03/16 01:19:47;;;;;;;27.80;15.10;;;8.20;99.90;;;;;;5012008;28;20533;-67
2022/03/16 01:22:13;;;;;;;19.45;13.10;;;8.20;99.90;;;;;;5013263;28;20167;-67
2022/03/16 01:24:39;;;;;;;20.73;11.40;;;8.20;99.90;;;;;;5025647;28;20526;-67
2022/03/16 01:27:05;;;;;;;19.17;13.17;;;8.20;99.90;;;;;;5032976;28;20205;-67
2022/03/16 01:29:31;;;;;;;17.80;13.75;;;8.20;99.90;;;;;;5033020;28;20224;-67
2022/03/16 01:31:56;;;;;;;20.33;13.30;;;8.20;99.90;;;;;;5032986;28;20163;-67
2022/03/16 01:34:22;;;;;;;23.90;15.43;;;8.20;99.90;;;;;;5031813;28;20519;-67
2022/03/16 01:36:48;;;;;;;24.40;14.90;;;8.20;99.90;;;;;;5033050;28;20181;-67
2022/03/16 01:39:14;;;;;;;21.50;14.00;;;8.20;99.90;;;;;;5031602;28;20431;-67
2022/03/16 01:41:42;;;;;;;18.65;14.80;;;8.20;99.90;;;;;;5032923;28;20775;-67
2022/03/16 01:44:08;;;;;;;24.65;18.00;;;8.20;99.90;;;;;;5032257;28;20174;-68
2022/03/16 01:46:34;;;;;;;22.83;15.25;;;8.10;99.90;;;;;;5032865;28;20330;-67
2022/03/16 01:48:59;;;;;;;22.30;12.73;;;8.20;99.90;;;;;;5034911;28;20596;-67
2022/03/16 01:51:25;;;;;;;26.00;15.97;;;8.10;99.90;;;;;;5036795;28;20244;-67
2022/03/16 01:53:51;;;;;;;20.37;14.87;;;8.10;99.90;;;;;;5036055;28;20170;-67
2022/03/16 01:56:17;;;;;;;24.07;16.57;;;8.10;99.90;;;;;;5036280;28;20197;-67
2022/03/16 01:58:43;;;;;;;21.50;13.73;;;8.10;99.90;;;;;;5036410;28;20166;-67
2022/03/16 02:01:09;;;;;;;22.25;13.13;;;8.20;99.90;;;;;;5026185;28;20656;-67
2022/03/16 02:03:35;;;;;;;22.20;14.43;;;8.20;99.90;;;;;;5030096;28;20198;-67
2022/03/16 02:06:01;;;;;;;26.13;13.50;;;8.20;99.90;;;;;;5036304;28;20280;-67
2022/03/16 02:08:32;;;;;;;22.15;15.73;;;8.30;99.90;;;;;;5035966;28;20170;-67
2022/03/16 02:10:57;;;;;;;23.45;14.80;;;8.20;99.90;;;;;;5036146;28;20589;-68
2022/03/16 02:13:24;;;;;;;22.70;16.10;;;8.20;99.90;;;;;;5035965;28;20194;-68
2022/03/16 02:15:50;;;;;;;23.58;15.27;;;8.20;99.90;;;;;;5025548;28;20216;-68
2022/03/16 02:18:16;;;;;;;19.60;12.37;;;8.20;99.90;;;;;;5016112;28;20254;-66
2022/03/16 02:20:42;;;;;;;23.60;14.00;;;8.20;99.90;;;;;;5016197;28;20169;-68
2022/03/16 02:23:08;;;;;;;21.07;13.80;;;8.20;99.90;;;;;;5015902;28;20486;-67
2022/03/16 02:25:51;;;;;;;23.40;14.50;;;8.30;99.90;;;;;;5014733;28;20253;-68
2022/03/16 02:28:18;;;;;;;18.55;11.75;;;8.20;99.90;;;;;;5016325;28;20553;-67
2022/03/16 02:30:44;;;;;;;18.48;11.73;;;8.20;99.90;;;;;;5019206;28;20174;-67
2022/03/16 02:33:10;;;;;;;22.60;13.87;;;8.20;99.90;;;;;;5035311;28;20532;-67
2022/03/16 02:35:35;;;;;;;25.10;13.50;;;8.10;99.90;;;;;;5035596;28;20186;-66
2022/03/16 02:38:02;;;;;;;26.40;14.70;;;8.10;99.90;;;;;;5035634;28;20166;-67
2022/03/16 02:40:28;;;;;;;14.15;10.40;;;8.20;99.90;;;;;;5032978;28;20273;-67
2022/03/16 02:42:53;;;;;;;22.27;14.60;;;8.20;99.90;;;;;;5015503;28;20202;-67
2022/03/16 02:45:19;;;;;;;24.20;14.00;;;8.20;99.90;;;;;;5015372;28;20256;-68
2022/03/16 02:47:45;;;;;;;32.00;19.03;;;8.20;99.90;;;;;;5017770;28;20202;-68
2022/03/16 02:50:12;;;;;;;22.00;14.93;;;8.20;99.90;;;;;;5029959;28;20474;-68
2022/03/16 02:52:39;;;;;;;16.00;11.32;;;8.20;99.90;;;;;;5035357;28;20245;-68
2022/03/16 02:55:06;;;;;;;22.83;13.70;;;8.20;99.90;;;;;;5034732;28;20195;-68
2022/03/16 02:57:31;;;;;;;20.58;14.88;;;8.20;99.90;;;;;;5035112;28;20175;-68
2022/03/16 02:59:57;;;;;;;28.60;15.93;;;8.10;99.90;;;;;;5034326;28;20256;-69
2022/03/16 03:02:23;;;;;;;18.97;14.50;;;8.10;99.90;;;;;;5019007;28;20243;-67
2022/03/16 03:04:49;;;;;;;20.93;13.37;;;8.10;99.90;;;;;;5014889;28;20691;-69
2022/03/16 03:07:14;;;;;;;25.00;13.83;;;8.10;99.90;;;;;;5015381;28;20553;-68
2022/03/16 03:09:40;;;;;;;26.10;14.80;;;8.10;99.90;;;;;;5015291;28;20198;-68
2022/03/16 03:12:06;;;;;;;17.73;13.97;;;8.10;99.90;;;;;;5015520;28;20409;-66
2022/03/16 03:14:32;;;;;;;21.80;12.65;;;8.10;99.90;;;;;;5014670;28;20205;-67
2022/03/16 03:16:59;;;;;;;23.60;12.97;;;8.10;99.90;;;;;;5028941;28;20186;-68
2022/03/16 03:19:24;;;;;;;22.13;14.20;;;8.10;99.90;;;;;;5034897;28;20575;-67
2022/03/16 03:21:50;;;;;;;23.13;13.47;;;8.20;99.90;;;;;;5033502;28;20178;-67
2022/03/16 03:24:16;;;;;;;23.17;14.57;;;8.20;99.90;;;;;;5034249;28;20173;-67
2022/03/16 03:26:42;;;;;;;23.33;14.13;;;8.20;99.90;;;;;;5030500;28;20993;-68
2022/03/16 03:29:08;;;;;;;22.30;14.73;;;8.20;99.90;;;;;;5014712;28;20889;-67
2022/03/16 03:31:34;;;;;;;24.63;13.80;;;8.20;99.90;;;;;;5014766;28;20213;-67
2022/03/16 03:34:00;;;;;;;29.23;14.82;;;8.30;99.90;;;;;;5014284;28;20159;-67
2022/03/16 03:36:26;;;;;;;21.30;14.23;;;8.30;99.90;;;;;;5014641;28;20178;-66
2022/03/16 03:38:52;;;;;;;22.30;12.33;;;8.20;99.90;;;;;;5014736;28;20182;-66
2022/03/16 03:41:17;;;;;;;24.33;15.10;;;8.30;99.90;;;;;;5016966;28;20182;-67
2022/03/16 03:43:43;;;;;;;20.40;13.10;;;8.30;99.90;;;;;;5027384;28;20186;-68
2022/03/16 03:46:09;;;;;;;21.47;13.10;;;8.30;99.90;;;;;;5014406;28;20186;-68
2022/03/16 03:48:34;;;;;;;18.53;12.90;;;8.30;99.90;;;;;;5014557;28;20170;-67
2022/03/16 03:51:00;;;;;;;24.80;13.50;;;8.30;99.90;;;;;;5014520;28;20636;-68
2022/03/16 03:53:25;;;;;;;23.83;14.20;;;8.40;99.90;;;;;;5014066;28;20178;-66
2022/03/16 03:55:51;;;;;;;19.63;12.00;;;8.40;99.90;;;;;;5015130;28;20204;-68
2022/03/16 03:58:17;;;;;;;18.53;12.57;;;8.40;99.90;;;;;;5032754;28;20189;-67
2022/03/16 04:00:42;;;;;;;19.90;14.30;;;8.40;99.90;;;;;;5034379;28;20178;-66
2022/03/16 04:03:08;;;;;;;19.57;14.10;;;8.40;99.90;;;;;;5033531;28;20192;-66
2022/03/16 04:05:34;;;;;;;25.40;15.57;;;8.40;99.90;;;;;;5033932;28;20200;-67
2022/03/16 04:07:59;;;;;;;22.70;13.43;;;8.30;99.90;;;;;;5034018;28;20211;-67
2022/03/16 04:10:25;;;;;;;17.13;12.00;;;8.30;99.90;;;;;;5031881;28;20180;-68
2022/03/16 04:12:51;;;;;;;23.70;13.13;;;8.30;99.90;;;;;;5033647;28;20249;-66
2022/03/16 04:15:20;;;;;;;17.97;12.50;;;8.30;99.90;;;;;;5033452;28;20205;-68
2022/03/16 04:17:46;;;;;;;20.10;12.15;;;8.40;99.90;;;;;;5033881;28;20463;-65
2022/03/16 04:20:11;;;;;;;29.10;14.88;;;8.40;99.90;;;;;;5033821;28;20178;-66
2022/03/16 04:22:37;;;;;;;27.13;16.70;;;8.40;99.90;;;;;;5032201;28;20269;-67
2022/03/16 04:25:04;;;;;;;23.33;14.90;;;8.30;99.90;;;;;;5023622;28;20218;-67
2022/03/16 04:27:29;;;;;;;20.95;12.18;;;8.40;99.90;;;;;;5033471;28;20206;-67
2022/03/16 04:29:55;;;;;;;24.93;15.00;;;8.30;99.90;;;;;;5033702;28;20283;-66
2022/03/16 04:32:21;;;;;;;28.53;13.93;;;8.40;99.90;;;;;;5033549;28;20171;-67
2022/03/16 04:34:47;;;;;;;20.37;15.00;;;8.30;99.90;;;;;;5032345;28;20436;-67
2022/03/16 04:37:13;;;;;;;24.83;14.13;;;8.30;99.90;;;;;;5032212;28;20540;-67
2022/03/16 04:39:39;;;;;;;20.77;12.70;;;8.20;99.90;;;;;;5033376;28;20166;-67
2022/03/16 04:42:05;;;;;;;16.53;13.33;;;8.30;99.90;;;;;;5033299;28;20169;-69
2022/03/16 04:44:30;;;;;;;22.52;15.38;;;8.30;99.90;;;;;;5032898;28;20490;-67
2022/03/16 04:46:56;;;;;;;23.40;15.00;;;8.30;99.90;;;;;;5033363;28;20229;-67
2022/03/16 04:49:22;;;;;;;21.97;16.67;;;8.40;99.90;;;;;;5029063;28;20249;-67
2022/03/16 04:51:47;;;;;;;22.70;15.47;;;8.40;99.90;;;;;;5013674;28;20249;-67
2022/03/16 04:54:14;;;;;;;21.53;14.50;;;8.40;99.90;;;;;;5013318;28;20177;-67
2022/03/16 04:56:40;;;;;;;16.60;13.48;;;8.30;99.90;;;;;;5013648;28;20250;-66
2022/03/16 04:59:06;;;;;;;21.53;14.30;;;8.30;99.90;;;;;;5013549;28;20270;-67
2022/03/16 05:01:32;;;;;;;22.93;14.47;;;8.30;99.90;;;;;;5025043;28;20213;-67
2022/03/16 05:03:57;;;;;;;22.23;14.80;;;8.30;99.90;;;;;;5032653;28;20197;-67
2022/03/16 05:06:23;;;;;;;24.23;14.70;;;8.30;99.90;;;;;;5032994;28;20459;-67
2022/03/16 05:08:50;;;;;;;27.27;14.37;;;8.30;99.90;;;;;;5033000;28;20474;-67
2022/03/16 05:11:16;;;;;;;18.92;12.57;;;8.30;99.90;;;;;;5032976;28;20170;-67
2022/03/16 05:13:42;;;;;;;29.95;15.68;;;8.30;99.90;;;;;;5030823;28;20174;-67
2022/03/16 05:16:08;;;;;;;23.98;14.73;;;8.30;99.90;;;;;;5032902;28;20189;-67
2022/03/16 05:18:34;;;;;;;24.33;14.97;;;8.30;99.90;;;;;;5033170;28;20177;-66
2022/03/16 05:21:00;;;;;;;25.42;14.30;;;8.40;99.90;;;;;;5033063;28;20253;-67
2022/03/16 05:23:26;;;;;;;24.98;13.70;;;8.30;99.90;;;;;;5032333;28;20166;-67
2022/03/16 05:25:51;;;;;;;22.37;13.30;;;8.40;99.90;;;;;;5036790;28;20193;-66
2022/03/16 05:28:17;;;;;;;24.53;15.60;;;8.40;99.90;;;;;;5036911;28;20200;-66
2022/03/16 05:30:43;;;;;;;26.07;17.40;;;8.40;99.90;;;;;;5036782;28;20527;-66
2022/03/16 05:33:09;;;;;;;22.55;15.95;;;8.40;99.90;;;;;;5036418;28;20505;-67
2022/03/16 05:35:35;;;;;;;28.02;17.35;;;8.40;99.90;;;;;;5036800;28;20715;-67
2022/03/16 05:38:05;;;;;;;16.67;13.87;;;8.40;99.90;;;;;;5023251;28;20178;-67
2022/03/16 05:40:31;;;;;;;19.02;13.32;;;8.40;99.90;;;;;;5016785;28;20178;-67
2022/03/16 05:42:57;;;;;;;20.80;11.60;;;8.50;99.90;;;;;;5034606;28;20246;-68
2022/03/16 05:45:22;;;;;;;23.30;14.10;;;8.50;99.90;;;;;;5054178;28;20529;-66
2022/03/16 05:47:48;;;;;;;23.50;15.23;;;8.50;99.90;;;;;;5056328;28;20418;-66
2022/03/16 05:50:14;;;;;;;27.17;14.10;;;8.50;99.90;;;;;;5056532;28;20162;-67
2022/03/16 05:52:41;;;;;;;23.47;14.40;;;8.60;99.90;;;;;;5042875;28;20177;-68
2022/03/16 05:55:07;;;;;;;20.88;13.60;;;8.60;99.90;;;;;;5035744;28;20548;-68
2022/03/16 05:57:36;;;;;;;18.92;11.60;;;8.60;99.90;;;;;;5036381;28;20197;-68
2022/03/16 06:00:02;;;;;;;26.70;13.65;;;8.70;99.90;;;;;;5043915;28;20196;-68
2022/03/16 06:02:28;;;;;;;21.77;14.07;;;8.70;99.90;;;;;;5053803;28;20197;-68
2022/03/16 06:04:53;;;;;;;24.67;14.57;;;8.60;99.90;;;;;;5034249;28;20205;-67
2022/03/16 06:07:19;;;;;;;22.90;14.47;;;8.60;99.90;;;;;;5043993;28;20500;-66
2022/03/16 06:09:45;;;;;;;16.17;11.70;;;8.50;99.90;;;;;;5053313;28;20173;-67
2022/03/16 06:12:10;;;;;;;20.77;11.77;;;8.40;99.90;;;;;;5054995;28;20165;-66
2022/03/16 06:14:36;;;;;;;26.83;12.50;;;8.30;99.90;;;;;;5055465;28;20695;-69
2022/03/16 06:17:02;;;;;;;19.80;12.03;;;8.20;99.90;;;;;;5054928;28;20165;-68
2022/03/16 06:19:28;;;;;;;16.83;12.23;;;8.20;99.90;;;;;;5033689;28;20607;-67
2022/03/16 06:21:54;;;;;;;18.03;12.57;;;8.10;99.90;;;;;;5036036;28;20201;-68
2022/03/16 06:24:19;;;;;;;21.43;15.60;;;8.10;99.90;;;;;;5015835;28;20237;-66
2022/03/16 06:26:45;;;;;;;21.90;14.27;;;8.10;99.90;;;;;;5015800;28;20280;-66
2022/03/16 06:29:10;;;;;;;17.10;13.83;;;8.00;99.90;;;;;;5015738;28;20169;-66
2022/03/16 06:31:36;;;;;;;22.90;14.30;;;8.00;99.90;;;;;;5016010;28;20173;-66
2022/03/16 06:34:02;;;;;;;19.57;14.10;;;8.00;99.90;;;;;;5016322;28;20169;-67
2022/03/16 06:36:28;;;;;;;18.73;10.40;;;8.00;99.90;;;;;;5015501;28;20182;-68
2022/03/16 06:38:55;;;;;;;19.43;13.33;;;8.00;99.90;;;;;;5014828;28;20182;-68
2022/03/16 06:41:22;;;;;;;20.65;13.88;;;7.90;99.90;;;;;;5015677;28;20169;-68
2022/03/16 06:43:48;;;;;;;18.55;13.18;;;7.90;99.90;;;;;;5032452;28;20536;-68
2022/03/16 06:46:14;;;;;;;17.67;13.77;;;7.90;99.90;;;;;;5035341;28;20189;-66
2022/03/16 06:48:40;;;;;;;20.83;12.73;;;8.00;99.90;;;;;;5035200;28;20883;-66
2022/03/16 06:51:06;;;;;;;15.70;10.73;;;7.90;99.90;;;;;;5035234;28;20432;-67
2022/03/16 06:53:32;;;;;;;16.42;10.82;;;7.90;99.90;;;;;;5034843;28;20542;-68
2022/03/16 06:55:58;;;;;;;16.97;11.50;;;7.90;99.90;;;;;;5035130;28;20592;-66
2022/03/16 06:58:27;;;;;;;22.17;12.02;;;7.80;99.90;;;;;;5018693;28;20534;-66
2022/03/16 07:00:52;;;;;;;17.67;12.65;;;7.80;99.90;;;;;;5015061;28;20182;-68
2022/03/16 07:03:18;;;;;;;17.50;11.10;;;7.80;99.90;;;;;;5014436;28;20189;-68
2022/03/16 07:05:45;;;;;;;22.20;11.60;;;7.80;99.90;;;;;;5015349;28;20217;-67
2022/03/16 07:08:12;;;;;;;17.63;11.55;;;7.90;99.90;;;;;;5015187;28;20604;-68
2022/03/16 07:10:40;;;;;;;13.50;10.02;;;7.90;99.90;;;;;;5015023;28;20296;-67
2022/03/16 07:13:11;;;;;;;20.90;12.20;;;8.00;99.90;;;;;;5030476;28;20173;-68
2022/03/16 07:15:44;;;;;;;22.00;12.50;;;7.90;99.90;;;;;;5033614;28;20277;-67
2022/03/16 07:18:10;;;;;;;14.00;10.02;;;8.00;99.90;;;;;;5033164;28;20180;-68
2022/03/16 07:20:36;;;;;;;21.27;11.87;;;8.00;99.90;;;;;;5032732;28;20173;-66
2022/03/16 07:23:12;;;;;;;17.75;10.48;;;8.00;99.90;;;;;;5025556;28;20461;-68
2022/03/16 07:25:41;;;;;;;41.42;12.30;;;7.90;99.90;;;;;;5014800;28;20600;-69
2022/03/16 07:28:08;;;;;;;14.68;10.63;;;7.90;99.90;;;;;;5014762;28;20287;-68
2022/03/16 07:30:35;;;;;;;19.70;10.55;;;7.90;99.90;;;;;;5014668;28;20174;-68
2022/03/16 07:33:01;;;;;;;18.90;10.77;;;7.90;99.90;;;;;;5024867;28;20173;-66
2022/03/16 07:35:27;;;;;;;17.70;11.07;;;7.90;99.90;;;;;;5041615;28;20284;-64
2022/03/16 07:37:57;;;;;;;20.55;11.07;;;7.90;99.90;;;;;;5028063;28;20182;-66
2022/03/16 07:40:24;;;;;;;13.40;11.00;;;7.90;99.90;;;;;;5014755;28;20521;-67
2022/03/16 07:42:51;;;;;;;19.20;11.23;;;7.90;99.90;;;;;;5020317;28;20217;-69
2022/03/16 07:45:21;;;;;;;15.15;10.57;;;7.90;99.90;;;;;;5042102;28;20200;-66
2022/03/16 07:47:48;;;;;;;14.00;9.18;;;7.90;99.90;;;;;;5035986;28;20216;-66
2022/03/16 07:50:15;;;;;;;20.63;10.68;;;7.90;99.90;;;;;;5014523;28;20561;-66
2022/03/16 07:52:42;;;;;;;15.32;10.63;;;8.00;99.90;;;;;;5027015;28;20307;-67
2022/03/16 07:55:09;;;;;;;11.85;10.23;;;7.90;99.90;;;;;;5035863;28;20189;-68
2022/03/16 07:57:36;;;;;;;17.27;8.90;;;7.90;99.90;;;;;;5045237;28;20229;-65
2022/03/16 08:00:04;;;;;;;18.40;10.88;;;7.90;99.90;;;;;;5052648;28;20170;-66
2022/03/16 08:02:29;;;;;;;13.70;9.25;;;7.90;99.90;;;;;;5046490;28;20181;-65
2022/03/16 08:04:57;;;;;;;21.80;12.27;;;7.90;99.90;;;;;;5033545;28;20255;-65
2022/03/16 08:07:27;;;;;;;16.25;8.80;;;7.90;99.90;;;;;;5042931;28;20276;-64
2022/03/16 08:09:53;;;;;;;18.05;10.95;;;7.90;99.90;;;;;;5053838;28;20610;-68
2022/03/16 08:12:19;;;;;;;12.77;8.50;;;8.00;99.90;;;;;;5045032;28;20602;-65
2022/03/16 08:14:45;;;;;;;19.27;12.33;;;8.00;99.90;;;;;;5041683;28;20221;-67
2022/03/16 08:17:10;;;;;;;15.30;8.20;;;8.00;99.90;;;;;;5050102;28;20189;-69
2022/03/16 08:19:36;;;;;;;12.30;9.77;;;8.00;99.90;;;;;;5053820;28;20682;-66
2022/03/16 08:22:02;;;;;;;12.80;10.13;;;8.00;99.90;;;;;;5053340;28;20247;-69
2022/03/16 08:24:27;;;;;;;16.83;8.87;;;8.00;99.90;;;;;;5050942;28;20215;-67
2022/03/16 08:26:53;;;;;;;15.13;10.73;;;8.10;99.90;;;;;;5041915;28;20254;-66
2022/03/16 08:29:18;;;;;;;15.60;10.63;;;8.10;99.90;;;;;;5041306;28;20255;-67
2022/03/16 08:31:44;;;;;;;10.90;7.73;;;8.20;99.90;;;;;;5043039;28;20235;-66
2022/03/16 08:34:10;;;;;;;11.10;8.50;;;8.20;99.90;;;;;;5043748;28;20540;-65
2022/03/16 08:36:35;;;;;;;11.53;10.30;;;8.20;99.90;;;;;;5045381;28;20185;-68
2022/03/16 08:39:03;;;;;;;11.60;10.07;;;8.20;99.90;;;;;;5043497;28;20505;-66
2022/03/16 08:41:31;;;;;;;13.02;7.85;;;8.30;99.90;;;;;;5040415;28;20176;-67
2022/03/16 08:43:57;;;;;;;10.30;8.45;;;8.40;99.90;;;;;;5041766;28;20174;-67
2022/03/16 08:46:23;;;;;;;10.50;8.43;;;8.30;99.90;;;;;;5041739;28;20193;-66
2022/03/16 08:48:48;;;;;;;12.90;8.90;;;8.30;99.90;;;;;;5044611;28;20654;-65
2022/03/16 08:51:14;;;;;;;9.87;8.13;;;8.40;99.90;;;;;;5044397;28;20535;-65
2022/03/16 08:53:40;;;;;;;17.60;9.70;;;8.30;99.90;;;;;;5041115;28;20169;-67
2022/03/16 08:56:05;;;;;;;10.70;7.10;;;8.30;99.90;;;;;;5038056;28;21014;-65
2022/03/16 08:58:31;;;;;;;12.73;8.70;;;8.40;99.90;;;;;;5043874;28;20181;-67
2022/03/16 09:00:57;;;;;;;14.40;8.73;;;8.50;99.90;;;;;;5048479;28;20658;-67
2022/03/16 09:03:22;;;;;;;11.90;7.20;;;8.50;99.90;;;;;;5051084;28;20237;-67
2022/03/16 09:05:48;;;;;;;11.30;9.57;;;8.60;99.90;;;;;;5057174;28;20547;-68
2022/03/16 09:08:14;;;;;;;12.05;10.85;;;8.60;99.90;;;;;;5056993;28;20196;-68
2022/03/16 09:10:40;;;;;;;14.67;9.87;;;8.70;99.90;;;;;;5043060;28;20169;-67
2022/03/16 09:13:06;;;;;;;12.70;9.27;;;8.80;99.90;;;;;;5036753;28;20487;-67
2022/03/16 09:15:32;;;;;;;13.35;8.63;;;8.90;99.90;;;;;;5037145;28;20603;-65
2022/03/16 09:17:58;;;;;;;13.35;8.50;;;8.90;99.90;;;;;;5031045;28;20197;-65
2022/03/16 09:20:24;;;;;;;13.33;8.67;;;9.10;99.90;;;;;;5027530;28;20174;-65
2022/03/16 09:22:50;;;;;;;11.67;8.10;;;9.20;99.90;;;;;;5036986;28;20566;-67
2022/03/16 09:25:15;;;;;;;14.73;9.77;;;9.20;99.90;;;;;;5035419;28;20200;-66
2022/03/16 09:27:41;;;;;;;9.60;8.60;;;9.30;99.90;;;;;;5036813;28;20291;-67
2022/03/16 09:30:07;;;;;;;8.63;7.00;;;9.30;99.90;;;;;;5036961;28;20216;-65
2022/03/16 09:32:33;;;;;;;14.13;10.40;;;9.30;99.90;;;;;;5031932;28;20175;-67
2022/03/16 09:35:00;;;;;;;11.87;7.43;;;9.40;99.90;;;;;;5036186;28;20185;-65
2022/03/16 09:37:25;;;;;;;11.90;9.02;;;9.50;99.90;;;;;;5017389;28;20270;-65
2022/03/16 09:39:51;;;;;;;11.83;8.90;;;9.60;99.90;;;;;;5016761;28;20641;-67
2022/03/16 09:42:19;;;;;;;11.80;7.10;;;9.70;99.90;;;;;;5016861;28;20175;-67
2022/03/16 09:44:46;;;;;;;10.63;8.93;;;9.70;99.90;;;;;;5016322;28;20487;-66
2022/03/16 09:47:12;;;;;;;10.98;7.03;;;9.80;99.90;;;;;;5021061;28;20194;-67
2022/03/16 09:49:39;;;;;;;14.20;9.27;;;9.80;99.90;;;;;;5036557;28;20158;-67
2022/03/16 09:52:07;;;;;;;12.30;8.55;;;9.90;99.90;;;;;;5036546;28;20162;-67
2022/03/16 09:54:33;;;;;;;13.57;9.93;;;10.00;99.90;;;;;;5035851;28;20186;-66
2022/03/16 09:56:59;;;;;;;12.32;8.05;;;10.20;99.90;;;;;;5036437;28;20247;-67
2022/03/16 09:59:25;;;;;;;12.88;8.93;;;10.20;99.90;;;;;;5036034;28;20185;-67
2022/03/16 10:02:06;;;;;;;10.60;8.33;;;10.20;99.90;;;;;;5027668;28;20171;-67
2022/03/16 10:04:36;;;;;;;10.10;7.88;;;10.20;99.90;;;;;;5015893;28;20194;-68
2022/03/16 10:07:05;;;;;;;13.25;8.85;;;10.30;99.90;;;;;;5016348;28;20225;-68
2022/03/16 10:15:10;;;;;;;11.77;8.25;;;10.40;99.90;;;;;;5016129;28;20198;-67
2022/03/16 10:17:46;;;;;;;16.67;9.45;;;10.50;99.90;;;;;;5021335;28;20175;-65
2022/03/16 10:20:21;;;;;;;12.32;8.60;;;10.60;99.90;;;;;;5016942;28;20167;-66
2022/03/16 10:23:16;;;;;;;15.65;10.18;;;10.80;99.90;;;;;;5015867;28;20197;-67
2022/03/16 10:25:51;;;;;;;14.25;9.20;;;10.90;99.90;;;;;;5015979;28;20605;-66
2022/03/16 10:28:21;;;;;;;16.25;9.57;;;11.10;99.90;;;;;;5015921;28;20293;-66
2022/03/16 10:30:59;;;;;;;9.77;8.05;;;11.10;99.90;;;;;;5015938;28;20633;-67
2022/03/16 10:33:36;;;;;;;19.63;7.60;;;11.10;99.90;;;;;;5015283;28;20185;-66
2022/03/16 10:36:05;;;;;;;12.75;7.78;;;11.20;99.90;;;;;;5031480;28;20656;-65
2022/03/16 10:38:45;;;;;;;14.65;8.55;;;11.30;99.90;;;;;;5034102;28;20257;-70
2022/03/16 10:41:14;;;;;;;11.60;8.20;;;11.60;99.90;;;;;;5035346;28;20761;-66
2022/03/16 10:46:40;;;;;;;14.07;8.30;;;11.90;99.90;;;;;;5035736;28;20922;-67
2022/03/16 10:49:10;;;;;;;12.47;8.13;;;12.00;99.90;;;;;;5033209;28;20407;-68
2022/03/16 10:51:37;;;;;;;13.30;9.23;;;12.10;99.90;;;;;;5015572;28;20401;-68
2022/03/16 10:54:05;;;;;;;17.10;9.33;;;12.20;99.90;;;;;;5014862;28;20412;-67
2022/03/16 10:56:31;;;;;;;12.23;7.97;;;12.40;99.90;;;;;;5015309;28;20415;-68
2022/03/16 10:58:58;;;;;;;12.27;8.90;;;12.50;99.90;;;;;;5015085;28;20404;-70
2022/03/16 11:01:26;;;;;;;10.37;8.00;;;12.50;99.90;;;;;;5015178;28;20413;-68
2022/03/16 11:03:53;;;;;;;13.43;9.43;;;12.70;99.90;;;;;;5016680;28;20436;-68
2022/03/16 11:06:22;;;;;;;8.87;7.23;;;13.10;99.90;;;;;;5034966;28;20432;-67
2022/03/16 11:08:53;;;;;;;11.27;8.20;;;13.20;99.90;;;;;;5035079;28;20407;-68
2022/03/16 11:14:04;;;;;;;10.10;6.93;;;13.60;99.90;;;;;;5034329;28;20519;-66
2022/03/16 11:16:33;;;;;;;9.67;6.97;;;13.90;99.90;;;;;;5035571;28;20409;-68
2022/03/16 11:19:01;;;;;;;7.60;6.90;;;14.00;99.90;;;;;;5036827;28;20475;-69
2022/03/16 11:21:55;;;;;;;7.37;6.43;;;14.10;99.90;;;;;;5036640;28;20782;-67
2022/03/16 11:24:24;;;;;;;7.97;5.87;;;14.20;99.90;;;;;;5036466;28;20420;-67
2022/03/16 11:27:18;;;;;;;9.43;7.10;;;14.00;99.90;;;;;;5035667;28;20590;-70
2022/03/16 11:30:07;;;;;;;9.80;7.30;;;13.90;99.90;;;;;;5016396;28;20416;-68
2022/03/16 11:32:41;;;;;;;9.17;7.00;;;13.80;99.90;;;;;;5015415;28;20567;-66
2022/03/16 11:35:11;;;;;;;8.50;7.13;;;13.60;99.90;;;;;;5015153;28;20891;-66
2022/03/16 11:37:50;;;;;;;5.77;4.93;;;13.60;99.90;;;;;;5015089;28;20392;-66
2022/03/16 11:40:25;;;;;;;11.87;9.00;;;13.60;99.90;;;;;;5014922;28;20537;-66
2022/03/16 11:43:04;;;;;;;10.17;6.70;;;13.60;99.90;;;;;;5008026;28;20849;-65
2022/03/16 11:45:38;;;;;;;8.00;6.47;;;13.70;99.90;;;;;;5033111;28;20797;-66
2022/03/16 11:48:26;;;;;;;8.80;6.97;;;13.80;99.90;;;;;;5033173;28;20465;-66
2022/03/16 11:51:13;;;;;;;10.37;7.60;;;13.90;99.90;;;;;;5034188;28;20718;-66
2022/03/16 11:54:02;;;;;;;10.63;7.10;;;13.90;99.90;;;;;;5024630;28;20472;-66
2022/03/16 11:56:39;;;;;;;7.20;6.23;;;14.00;99.90;;;;;;5021311;28;20431;-69
2022/03/16 11:59:28;;;;;;;10.37;7.10;;;14.00;99.90;;;;;;5034345;28;20407;-68
2022/03/16 12:02:06;;;;;;;7.57;6.30;;;14.10;99.90;;;;;;5034444;28;20411;-68
2022/03/16 12:04:43;;;;;;;9.20;7.00;;;14.10;99.90;;;;;;5034818;28;20942;-68
2022/03/16 12:07:21;;;;;;;8.00;7.20;;;14.10;99.90;;;;;;5034023;28;20455;-69
2022/03/16 12:09:50;;;;;;;7.43;6.10;;;14.00;99.90;;;;;;5014659;28;20405;-70
2022/03/16 12:15:27;;;;;;;7.57;5.67;;;14.00;99.90;;;;;;5048608;28;20441;-68
2022/03/16 12:17:55;;;;;;;7.40;6.00;;;14.10;99.90;;;;;;5051817;28;20447;-69
2022/03/16 12:20:21;;;;;;;9.23;6.67;;;14.10;99.90;;;;;;5051930;28;20486;-70
2022/03/16 12:22:52;;;;;;;9.07;5.40;;;14.10;99.90;;;;;;5032360;28;20534;-70
2022/03/16 12:25:27;;;;;;;6.53;5.40;;;14.10;99.90;;;;;;5033126;28;20193;-69
2022/03/16 12:30:45;;;;;;;9.50;7.03;;;14.10;99.90;;;;;;5053513;28;20453;-69
2022/03/16 12:33:19;;;;;;;8.73;6.80;;;14.00;99.90;;;;;;5051463;28;20420;-69
2022/03/16 12:35:46;;;;;;;6.80;6.10;;;13.80;99.90;;;;;;5046444;28;20448;-69
2022/03/16 12:38:13;;;;;;;8.23;6.20;;;13.60;99.90;;;;;;5023269;28;20788;-69
2022/03/16 12:43:27;;;;;;;15.40;6.60;;;13.50;99.90;;;;;;5013184;28;20443;-67
2022/03/16 12:46:02;;;;;;;7.47;6.73;;;13.50;99.90;;;;;;5013619;28;20408;-69
2022/03/16 12:48:33;;;;;;;8.20;7.40;;;13.40;99.90;;;;;;5014177;28;20953;-69
2022/03/16 12:51:00;;;;;;;9.13;7.27;;;13.40;99.90;;;;;;5023645;28;20514;-69
2022/03/16 12:53:46;;;;;;;9.20;7.63;;;13.30;99.90;;;;;;5032914;28;20438;-68
2022/03/16 12:56:18;;;;;;;9.03;6.97;;;13.20;99.90;;;;;;5033244;28;20472;-69
2022/03/16 12:58:54;;;;;;;9.17;6.80;;;13.20;99.90;;;;;;5033084;28;20383;-68
2022/03/16 13:01:20;;;;;;;9.60;7.23;;;13.10;99.90;;;;;;5032911;28;20390;-69